createdAt,value
2022-11-22T00:00:45.329Z,972
2022-11-22T00:08:26.584Z,972
2022-11-22T00:14:37.136Z,971
2022-11-22T00:20:47.864Z,972
2022-11-22T00:26:58.505Z,972
2022-11-22T00:33:09.156Z,971
2022-11-22T00:39:19.842Z,971
2022-11-22T00:45:22.301Z,972
2022-11-22T00:51:32.937Z,971
2022-11-22T00:57:43.662Z,971
2022-11-22T01:02:48.382Z,971
2022-11-22T01:08:59.013Z,972
2022-11-22T01:15:09.696Z,972
2022-11-22T01:21:20.332Z,972
2022-11-22T01:27:31.249Z,972
2022-11-22T01:33:41.814Z,972
2022-11-22T01:40:58.256Z,972
2022-11-22T01:47:08.972Z,972
2022-11-22T01:53:19.628Z,972
2022-11-22T01:59:30.600Z,972
2022-11-22T02:05:40.937Z,972
2022-11-22T02:11:51.645Z,972
2022-11-22T02:18:02.298Z,972
2022-11-22T02:24:12.931Z,972
2022-11-22T02:30:23.631Z,972
2022-11-22T02:36:34.419Z,972
2022-11-22T02:41:39.005Z,972
2022-11-22T02:47:49.692Z,972
2022-11-22T02:54:00.311Z,972
2022-11-22T03:00:10.977Z,972
2022-11-22T03:06:21.679Z,972
2022-11-22T03:12:32.297Z,972
2022-11-22T03:18:42.982Z,972
2022-11-22T03:24:53.672Z,972
2022-11-22T03:31:04.320Z,972
2022-11-22T03:37:14.971Z,973
2022-11-22T03:43:17.486Z,973
2022-11-22T03:49:28.663Z,973
2022-11-22T03:55:38.767Z,973
2022-11-22T04:01:49.587Z,973
2022-11-22T04:08:00.123Z,973
2022-11-22T04:14:10.762Z,973
2022-11-22T04:20:21.462Z,973
2022-11-22T04:26:32.110Z,973
2022-11-22T04:32:42.775Z,973
2022-11-22T04:38:53.467Z,973
2022-11-22T04:44:55.916Z,973
2022-11-22T04:51:06.596Z,973
2022-11-22T04:57:17.274Z,973
2022-11-22T05:03:27.893Z,973
2022-11-22T05:08:49.017Z,973
2022-11-22T05:16:13.849Z,973
2022-11-22T05:22:24.496Z,973
2022-11-22T05:28:35.168Z,973
2022-11-22T05:34:45.831Z,973
2022-11-22T05:40:56.483Z,973
2022-11-22T05:46:58.965Z,973
2022-11-22T05:53:09.629Z,974
2022-11-22T05:59:20.257Z,974
2022-11-22T06:05:30.921Z,974
2022-11-22T06:11:41.625Z,974
2022-11-22T06:17:52.265Z,974
2022-11-22T06:24:02.951Z,974
2022-11-22T06:30:13.605Z,974
2022-11-22T06:36:24.286Z,974
2022-11-22T06:43:46.768Z,974
2022-11-22T06:49:51.570Z,974
2022-11-22T06:56:02.216Z,974
2022-11-22T07:02:12.863Z,974
2022-11-22T07:08:23.571Z,974
2022-11-22T07:14:34.208Z,974
2022-11-22T07:20:44.869Z,974
2022-11-22T07:26:55.563Z,974
2022-11-22T07:33:06.193Z,974
2022-11-22T07:38:19.107Z,974
2022-11-22T07:44:29.800Z,974
2022-11-22T07:50:40.440Z,974
2022-11-22T07:56:42.934Z,974
2022-11-22T08:02:53.739Z,974
2022-11-22T08:09:04.239Z,974
2022-11-22T08:15:14.916Z,974
2022-11-22T08:21:25.694Z,974
2022-11-22T08:27:36.233Z,974
2022-11-22T08:33:46.905Z,975
2022-11-22T08:39:57.719Z,975
2022-11-22T08:46:08.230Z,975
2022-11-22T08:52:18.919Z,975
2022-11-22T08:58:21.501Z,975
2022-11-22T09:04:32.044Z,975
2022-11-22T09:10:42.693Z,975
2022-11-22T09:17:01.670Z,975
2022-11-22T09:23:12.260Z,975
2022-11-22T09:29:22.885Z,975
2022-11-22T09:35:33.701Z,975
2022-11-22T09:41:44.198Z,975
2022-11-22T09:47:54.893Z,975
2022-11-22T09:54:05.711Z,975
2022-11-22T10:00:08.112Z,975
2022-11-22T10:06:18.836Z,975
2022-11-22T10:11:36.190Z,975
2022-11-22T10:17:42.268Z,975
2022-11-22T10:23:52.945Z,975
2022-11-22T10:30:03.776Z,975
2022-11-22T10:37:28.410Z,975
2022-11-22T10:43:39.079Z,974
2022-11-22T10:49:49.887Z,974
2022-11-22T10:57:06.330Z,974
2022-11-22T11:03:17.015Z,974
2022-11-22T11:15:38.341Z,974
2022-11-22T11:21:48.990Z,974
2022-11-22T11:27:59.801Z,974
2022-11-22T11:34:10.324Z,974
2022-11-22T11:40:20.997Z,974
2022-11-22T11:46:31.791Z,974
2022-11-22T11:52:42.323Z,974
2022-11-22T11:58:44.822Z,974
2022-11-22T12:04:55.577Z,974
2022-11-22T12:11:06.152Z,974
2022-11-22T12:17:16.784Z,974
2022-11-22T12:23:27.624Z,974
2022-11-22T12:29:38.121Z,974
2022-11-22T12:35:48.946Z,974
2022-11-22T12:41:01.843Z,974
2022-11-22T12:47:12.392Z,974
2022-11-22T12:53:23.068Z,974
2022-11-22T12:59:25.651Z,974
2022-11-22T13:05:36.184Z,974
2022-11-22T13:11:46.854Z,974
2022-11-22T13:17:57.673Z,974
2022-11-22T13:24:08.276Z,974
2022-11-22T13:29:12.913Z,974
2022-11-22T13:35:23.604Z,974
2022-11-22T13:41:34.258Z,974
2022-11-22T13:47:44.947Z,974
2022-11-22T13:53:55.726Z,974
2022-11-22T14:01:12.227Z,974
2022-11-22T14:07:22.876Z,974
2022-11-22T14:13:33.631Z,974
2022-11-22T14:19:44.187Z,974
2022-11-22T14:25:54.833Z,974
2022-11-22T14:32:05.635Z,974
2022-11-22T14:38:16.195Z,974
2022-11-22T14:44:26.845Z,974
2022-11-22T14:50:37.627Z,974
2022-11-22T14:56:48.143Z,974
2022-11-22T15:02:50.767Z,974
2022-11-22T15:09:10.828Z,974
2022-11-22T15:14:14.265Z,974
2022-11-22T15:57:28.885Z,974
2022-11-22T16:03:31.439Z,974
2022-11-22T16:09:42.013Z,974
2022-11-22T16:15:52.691Z,974
2022-11-22T16:22:03.373Z,974
2022-11-22T16:28:14.017Z,974
2022-11-22T16:34:24.668Z,974
2022-11-22T16:40:35.468Z,975
2022-11-22T16:46:46.027Z,975
2022-11-22T16:53:01.413Z,975
2022-11-22T16:59:12.356Z,975
2022-11-22T17:06:23.961Z,975
2022-11-22T17:12:34.606Z,975
2022-11-22T17:18:45.406Z,975
2022-11-22T17:24:55.977Z,975
2022-11-22T17:31:06.607Z,975
2022-11-22T17:36:11.604Z,975
2022-11-22T17:41:24.271Z,975
2022-11-22T17:47:34.903Z,975
2022-11-22T17:53:45.728Z,975
2022-11-22T17:59:56.259Z,975
2022-11-22T18:05:58.740Z,975
2022-11-22T18:12:09.543Z,975
2022-11-22T18:18:48.482Z,975
2022-11-22T18:24:30.743Z,975
2022-11-22T18:30:41.507Z,976
2022-11-22T18:37:07.508Z,976
2022-11-22T18:43:02.707Z,976
2022-11-22T18:49:13.505Z,976
2022-11-22T18:55:24.073Z,976
2022-11-22T19:01:34.909Z,976
2022-11-22T19:07:45.623Z,976
2022-11-22T19:13:47.870Z,976
2022-11-22T19:19:58.537Z,976
2022-11-22T19:26:09.306Z,976
2022-11-22T19:32:19.856Z,976
2022-11-22T19:38:30.506Z,976
2022-11-22T19:44:41.303Z,976
2022-11-22T19:50:51.899Z,976
2022-11-22T19:57:02.508Z,976
2022-11-22T20:03:13.289Z,976
2022-11-22T20:08:26.083Z,976
2022-11-22T20:14:28.817Z,976
2022-11-22T20:20:39.338Z,976
2022-11-22T20:26:49.934Z,976
2022-11-22T20:33:00.576Z,976
2022-11-22T20:39:11.396Z,976
2022-11-22T20:45:21.944Z,976
2022-11-22T20:51:32.605Z,976
2022-11-22T20:57:43.365Z,976
2022-11-22T21:03:53.888Z,976
2022-11-22T21:10:04.572Z,976
2022-11-22T21:16:21.391Z,976
2022-11-22T21:22:17.688Z,976
2022-11-22T21:28:28.370Z,976
2022-11-22T21:34:39.162Z,976
2022-11-22T21:40:49.782Z,976
2022-11-22T21:45:54.410Z,976
2022-11-22T21:52:05.214Z,976
2022-11-22T21:58:15.767Z,976
2022-11-22T22:04:26.412Z,976
2022-11-22T22:10:37.232Z,976
2022-11-22T22:16:39.557Z,976
2022-11-22T22:22:50.410Z,976
2022-11-22T22:29:01.010Z,976
2022-11-22T22:35:11.559Z,976
2022-11-22T22:40:24.487Z,976
2022-11-22T22:46:35.274Z,976
2022-11-22T22:52:45.780Z,977
2022-11-22T22:58:56.529Z,977
2022-11-22T23:05:07.238Z,977
2022-11-22T23:11:17.800Z,977
2022-11-22T23:17:20.249Z,982
2022-11-22T23:23:31.092Z,977
2022-11-22T23:29:41.738Z,977
2022-11-22T23:35:52.267Z,977
2022-11-22T23:42:03.082Z,977
2022-11-22T23:48:13.605Z,977
2022-11-22T23:54:24.297Z,977
